Terminal Aerodrome Forecast
Issued by NWS Cleveland, OH

Home | Current Version | Previous Version | Text Only | Print | Product List | Glossary Off
Versions: 1 2 3 4 5 6 7 8 9 10 11 12 13 14 15 16 17 18 19 20

000
FTUS41 KCLE 302300
TAFTOL
TAF
KTOL 302339Z 3100/3124 21012G18KT P6SM VCSH SCT035 OVC120
     FM310300 21012KT 6SM -SHRA VCTS SCT015CB BKN035 OVC080
      TEMPO 3103/3106 5SM -SHRA OVC025
     FM310900 23007KT 4SM BR OVC012
     FM311600 24010KT P6SM BKN025
     FM312000 24010KT P6SM BKN035=

USA.gov is the U.S. government's official web portal to all federal, state and local government web resources and services.